createdAt,value
2023-04-13T00:00:00.295Z,982.3
2023-04-13T00:01:00.286Z,981.9
2023-04-13T00:02:00.355Z,981.9
2023-04-13T00:03:00.474Z,981.9
2023-04-13T00:04:00.748Z,981.9
2023-04-13T00:05:00.405Z,981.9
2023-04-13T00:06:00.304Z,981.9
2023-04-13T00:07:00.316Z,981.9
2023-04-13T00:08:00.317Z,981.9
2023-04-13T00:09:00.323Z,981.9
2023-04-13T00:10:00.312Z,982.1
2023-04-13T00:11:00.334Z,982.1
2023-04-13T00:12:00.296Z,981.9
2023-04-13T00:13:00.327Z,982.1
2023-04-13T00:14:00.545Z,982.1
2023-04-13T00:15:00.318Z,982.3
2023-04-13T00:16:00.304Z,982.3
2023-04-13T00:17:00.328Z,982.3
2023-04-13T00:18:00.491Z,982.7
2023-04-13T00:19:00.341Z,982.7
2023-04-13T00:20:00.371Z,982.7
2023-04-13T00:21:00.345Z,982.5
2023-04-13T00:22:00.323Z,982.7
2023-04-13T00:23:00.338Z,982.7
2023-04-13T00:24:00.706Z,982.7
2023-04-13T00:25:00.338Z,982.7
2023-04-13T00:26:00.345Z,982.7
2023-04-13T00:27:00.322Z,982.7
2023-04-13T00:28:00.339Z,983
2023-04-13T00:29:00.317Z,983
2023-04-13T00:30:00.375Z,983
2023-04-13T00:31:00.369Z,982.7
2023-04-13T00:32:00.320Z,983
2023-04-13T00:33:00.384Z,983.2
2023-04-13T00:34:00.377Z,983
2023-04-13T00:35:00.348Z,983.2
2023-04-13T00:36:00.413Z,983.2
2023-04-13T00:37:00.336Z,983.2
2023-04-13T00:38:00.413Z,983.2
2023-04-13T00:39:00.351Z,983.2
2023-04-13T00:40:00.394Z,983.2
2023-04-13T00:41:00.375Z,983.2
2023-04-13T00:42:00.349Z,983.2
2023-04-13T00:43:00.366Z,983.2
2023-04-13T00:44:00.487Z,983.2
2023-04-13T00:45:00.360Z,983.2
2023-04-13T00:46:00.401Z,983.2
2023-04-13T00:47:00.364Z,983.2
2023-04-13T00:48:00.612Z,983.2
2023-04-13T00:49:00.365Z,983.2
2023-04-13T00:50:00.414Z,983.4
2023-04-13T00:51:00.385Z,983.4
2023-04-13T00:52:00.363Z,983.4
2023-04-13T00:53:00.420Z,983.2
2023-04-13T00:54:00.449Z,983.2
2023-04-13T00:55:00.374Z,983.2
2023-04-13T00:56:00.369Z,983.2
2023-04-13T00:57:00.381Z,983.2
2023-04-13T00:58:00.382Z,983.2
2023-04-13T00:59:00.387Z,983.2
2023-04-13T01:00:00.474Z,983.4
2023-04-13T01:01:00.467Z,983.2
2023-04-13T01:02:00.466Z,983.2
2023-04-13T01:03:00.504Z,983.2
2023-04-13T01:04:00.595Z,983.6
2023-04-13T01:05:00.448Z,983.2
2023-04-13T01:06:00.678Z,983.2
2023-04-13T01:07:00.633Z,983.2
2023-04-13T01:08:00.427Z,983.4
2023-04-13T01:09:00.458Z,983.2
2023-04-13T01:10:00.489Z,983.2
2023-04-13T01:11:00.469Z,983.2
2023-04-13T01:12:00.613Z,983.2
2023-04-13T01:13:00.465Z,983.2
2023-04-13T01:14:00.905Z,983.4
2023-04-13T01:15:00.666Z,983.2
2023-04-13T01:16:00.485Z,983.2
2023-04-13T01:17:00.385Z,983.2
2023-04-13T01:18:00.434Z,983.2
2023-04-13T01:19:00.409Z,983.2
2023-04-13T01:20:00.423Z,983.2
2023-04-13T01:21:00.377Z,983.2
2023-04-13T01:22:00.380Z,983.2
2023-04-13T01:23:00.415Z,983.2
2023-04-13T01:24:00.660Z,983.2
2023-04-13T01:25:00.383Z,983.2
2023-04-13T01:26:00.382Z,983.2
2023-04-13T01:27:00.398Z,983.2
2023-04-13T01:28:00.415Z,983.2
2023-04-13T01:29:00.398Z,983.4
2023-04-13T01:30:00.443Z,983.4
2023-04-13T01:31:00.548Z,983.4
2023-04-13T01:32:00.384Z,983.2
2023-04-13T01:33:00.418Z,983.4
2023-04-13T01:34:00.672Z,983.6
2023-04-13T01:35:00.415Z,983.4
2023-04-13T01:36:00.414Z,983.4
2023-04-13T01:37:00.414Z,983.4
2023-04-13T01:38:00.383Z,983.4
2023-04-13T01:39:00.407Z,983.4
2023-04-13T01:40:00.393Z,983.4
2023-04-13T01:41:00.421Z,983.6
2023-04-13T01:42:00.422Z,983.6
2023-04-13T01:43:00.390Z,983.4
2023-04-13T01:44:00.706Z,983.4
2023-04-13T01:45:00.406Z,983.2
2023-04-13T01:46:00.394Z,983.2
2023-04-13T01:47:00.485Z,983.2
2023-04-13T01:48:00.440Z,983.4
2023-04-13T01:49:00.415Z,983.6
2023-04-13T01:50:00.442Z,983.4
2023-04-13T01:51:00.420Z,983.2
2023-04-13T01:52:00.428Z,983.2
2023-04-13T01:53:00.422Z,983.2
2023-04-13T01:54:00.708Z,983.4
2023-04-13T01:55:00.410Z,983.4
2023-04-13T01:56:00.414Z,983.4
2023-04-13T01:57:00.517Z,983.4
2023-04-13T01:58:00.438Z,983.4
2023-04-13T01:59:00.407Z,983.4
2023-04-13T02:00:00.424Z,983.2
2023-04-13T02:01:00.817Z,983.2
2023-04-13T02:02:00.809Z,983.2
2023-04-13T02:03:00.925Z,983.2
2023-04-13T02:04:01.079Z,983.2
2023-04-13T02:05:00.856Z,983.2
2023-04-13T02:06:00.801Z,983
2023-04-13T02:07:00.843Z,983
2023-04-13T02:08:00.768Z,983
2023-04-13T02:09:00.824Z,982.7
2023-04-13T02:10:00.885Z,983
2023-04-13T02:11:00.807Z,982.7
2023-04-13T02:12:00.802Z,982.7
2023-04-13T02:13:00.823Z,982.7
2023-04-13T02:14:00.871Z,983
2023-04-13T02:15:00.815Z,982.7
2023-04-13T02:16:00.816Z,982.7
2023-04-13T02:17:00.823Z,982.7
2023-04-13T02:18:00.815Z,982.7
2023-04-13T02:19:00.812Z,983
2023-04-13T02:20:00.873Z,983
2023-04-13T02:21:00.823Z,982.7
2023-04-13T02:22:00.817Z,983
2023-04-13T02:23:00.803Z,982.7
2023-04-13T02:24:01.065Z,983
2023-04-13T02:25:00.823Z,982.7
2023-04-13T02:26:00.817Z,983
2023-04-13T02:27:00.834Z,983
2023-04-13T02:28:00.822Z,983
2023-04-13T02:29:00.821Z,983
2023-04-13T02:30:00.882Z,983
2023-04-13T02:31:00.854Z,983
2023-04-13T02:32:00.854Z,983
2023-04-13T02:33:00.826Z,983.2
2023-04-13T02:34:01.129Z,983.2
2023-04-13T02:35:00.860Z,983.2
2023-04-13T02:36:00.833Z,983.2
2023-04-13T02:37:00.854Z,983.2
2023-04-13T02:38:00.836Z,983.2
2023-04-13T02:39:00.825Z,983.2
2023-04-13T02:40:00.873Z,983.2
2023-04-13T02:41:00.842Z,983.2
2023-04-13T02:42:00.855Z,983.2
2023-04-13T02:43:00.835Z,983
2023-04-13T02:44:01.255Z,983.2
2023-04-13T02:45:00.896Z,983
2023-04-13T02:46:00.870Z,983
2023-04-13T02:47:00.859Z,983
2023-04-13T02:48:00.829Z,982.7
2023-04-13T02:49:00.834Z,982.7
2023-04-13T02:50:01.268Z,982.7
2023-04-13T02:51:00.832Z,982.7
2023-04-13T02:52:00.834Z,982.7
2023-04-13T02:53:00.856Z,982.7
2023-04-13T02:54:00.971Z,982.7
2023-04-13T02:55:00.839Z,982.7
2023-04-13T02:56:00.820Z,982.7
2023-04-13T02:57:00.857Z,982.7
2023-04-13T02:58:00.821Z,982.7
2023-04-13T02:59:00.841Z,983
2023-04-13T03:00:01.268Z,982.7
2023-04-13T03:01:00.909Z,982.7
2023-04-13T03:02:00.933Z,982.7
2023-04-13T03:05:01.057Z,982.5
2023-04-13T03:06:00.972Z,982.5
2023-04-13T03:07:00.958Z,982.7
2023-04-13T03:08:00.946Z,982.7
2023-04-13T03:09:00.960Z,982.7
2023-04-13T03:10:01.163Z,982.7
2023-04-13T03:11:00.959Z,982.7
2023-04-13T03:12:00.960Z,982.7
2023-04-13T03:13:01.062Z,982.5
2023-04-13T03:14:01.338Z,982.7
2023-04-13T03:15:01.000Z,982.7
2023-04-13T03:16:00.939Z,982.7
2023-04-13T03:17:01.082Z,982.7
2023-04-13T03:18:01.037Z,982.7
2023-04-13T03:19:00.997Z,982.7
2023-04-13T03:20:01.022Z,982.7
2023-04-13T03:21:00.990Z,982.7
2023-04-13T03:22:00.984Z,982.7
2023-04-13T03:23:00.972Z,982.7
2023-04-13T03:24:01.124Z,982.7
2023-04-13T03:25:00.974Z,982.7
2023-04-13T03:26:00.959Z,982.5
2023-04-13T03:27:01.010Z,982.7
2023-04-13T03:28:00.988Z,982.7
2023-04-13T03:29:01.065Z,982.5
2023-04-13T03:30:01.192Z,982.7
2023-04-13T03:31:01.053Z,982.5
2023-04-13T03:32:00.976Z,982.3
2023-04-13T03:33:01.029Z,982.3
2023-04-13T03:34:01.183Z,982.3
2023-04-13T03:35:00.997Z,982.3
2023-04-13T03:36:00.989Z,982.5
2023-04-13T03:37:00.994Z,982.5
2023-04-13T03:38:01.002Z,982.3
2023-04-13T03:39:00.992Z,982.3
2023-04-13T03:40:01.130Z,982.3
2023-04-13T03:41:00.980Z,982.3
2023-04-13T03:42:01.025Z,982.3
2023-04-13T03:43:00.980Z,982.3
2023-04-13T03:44:01.100Z,982.3
2023-04-13T03:45:01.031Z,982.3
2023-04-13T03:46:00.999Z,982.3
2023-04-13T03:47:01.000Z,982.3
2023-04-13T03:48:01.045Z,982.5
2023-04-13T03:49:01.016Z,982.7
2023-04-13T03:50:01.103Z,982.7
2023-04-13T03:51:00.999Z,982.7
2023-04-13T03:52:00.998Z,982.7
2023-04-13T03:53:01.005Z,982.7
2023-04-13T03:54:01.357Z,982.7
2023-04-13T03:55:01.105Z,982.7
2023-04-13T03:56:01.037Z,982.7
2023-04-13T03:57:00.979Z,982.7
2023-04-13T03:58:00.971Z,982.7
2023-04-13T03:59:01.036Z,982.7
2023-04-13T04:00:01.480Z,983
2023-04-13T04:01:00.990Z,983.2
2023-04-13T04:02:01.006Z,983.2
2023-04-13T04:03:01.109Z,983.2
2023-04-13T04:04:01.328Z,983.2
2023-04-13T04:05:01.093Z,983.2
2023-04-13T04:06:00.985Z,983
2023-04-13T04:07:00.999Z,983.2
2023-04-13T04:08:01.014Z,983.2
2023-04-13T04:09:01.016Z,983.2
2023-04-13T04:10:01.091Z,983
2023-04-13T04:11:01.007Z,983
2023-04-13T04:12:00.997Z,982.7
2023-04-13T04:13:01.008Z,982.7
2023-04-13T04:14:01.417Z,982.7
2023-04-13T04:15:01.069Z,982.7
2023-04-13T04:16:01.055Z,982.5
2023-04-13T04:17:01.031Z,982.5
2023-04-13T04:18:01.071Z,982.7
2023-04-13T04:19:00.998Z,982.5
2023-04-13T04:20:01.080Z,982.7
2023-04-13T04:21:01.023Z,982.7
2023-04-13T04:22:01.011Z,982.7
2023-04-13T04:23:01.029Z,982.7
2023-04-13T04:24:01.003Z,982.7
2023-04-13T04:25:00.396Z,982.7
2023-04-13T04:26:00.393Z,982.7
2023-04-13T04:27:00.431Z,982.7
2023-04-13T04:28:00.354Z,982.7
2023-04-13T04:29:00.389Z,982.7
2023-04-13T04:30:00.400Z,982.7
2023-04-13T04:31:00.376Z,982.7
2023-04-13T04:32:00.447Z,982.7
2023-04-13T04:33:00.428Z,982.7
2023-04-13T04:34:00.637Z,982.7
2023-04-13T04:35:00.404Z,982.7
2023-04-13T04:36:00.360Z,982.7
2023-04-13T04:37:03.539Z,982.7
2023-04-13T04:38:00.378Z,982.7
2023-04-13T04:39:00.374Z,982.7
2023-04-13T04:40:00.523Z,982.7
2023-04-13T04:41:00.378Z,982.7
2023-04-13T04:42:00.384Z,982.7
2023-04-13T04:43:00.397Z,983
2023-04-13T04:44:00.662Z,983
2023-04-13T04:45:00.405Z,982.7
2023-04-13T04:46:00.438Z,982.7
2023-04-13T04:47:00.390Z,982.7
2023-04-13T04:48:00.457Z,982.7
2023-04-13T04:49:00.374Z,983
2023-04-13T04:50:00.421Z,983.2
2023-04-13T04:51:00.378Z,983
2023-04-13T04:52:00.386Z,983
2023-04-13T04:53:00.402Z,983
2023-04-13T04:54:00.608Z,983
2023-04-13T04:57:00.576Z,983.2
2023-04-13T04:58:00.579Z,983.2
2023-04-13T04:59:00.726Z,983.2
2023-04-13T05:00:00.584Z,983.4
2023-04-13T05:01:00.600Z,983.4
2023-04-13T05:02:00.643Z,983.4
2023-04-13T05:03:00.628Z,983.4
2023-04-13T05:04:00.569Z,983.2
2023-04-13T05:05:00.603Z,983.2
2023-04-13T05:06:00.567Z,983.2
2023-04-13T05:07:00.581Z,983.2
2023-04-13T05:08:00.628Z,983.2
2023-04-13T05:09:00.741Z,983.2
2023-04-13T05:10:00.624Z,983.2
2023-04-13T05:11:00.595Z,983.2
2023-04-13T05:12:00.589Z,983.2
2023-04-13T05:13:00.616Z,983.2
2023-04-13T05:14:00.574Z,983.2
2023-04-13T05:15:00.602Z,983.2
2023-04-13T05:16:00.716Z,983.2
2023-04-13T05:17:00.583Z,983.2
2023-04-13T05:18:00.621Z,983.4
2023-04-13T05:19:00.699Z,983.2
2023-04-13T05:20:00.634Z,983.2
2023-04-13T05:21:00.605Z,983.2
2023-04-13T05:22:00.578Z,983.2
2023-04-13T05:23:00.587Z,983.2
2023-04-13T05:24:00.591Z,983.2
2023-04-13T05:25:00.597Z,983.2
2023-04-13T05:26:00.608Z,983.2
2023-04-13T05:27:00.589Z,983.2
2023-04-13T05:28:00.584Z,983
2023-04-13T05:29:00.930Z,983.2
2023-04-13T05:30:00.653Z,983
2023-04-13T05:31:00.627Z,983
2023-04-13T05:32:00.754Z,983
2023-04-13T05:33:00.715Z,983
2023-04-13T05:34:00.608Z,982.7
2023-04-13T05:35:00.641Z,982.7
2023-04-13T05:36:00.623Z,983
2023-04-13T05:37:00.636Z,983
2023-04-13T05:38:00.605Z,982.7
2023-04-13T05:39:00.769Z,982.7
2023-04-13T05:40:00.647Z,982.7
2023-04-13T05:41:00.628Z,982.7
2023-04-13T05:42:00.600Z,982.7
2023-04-13T05:43:00.602Z,982.5
2023-04-13T05:44:00.618Z,982.5
2023-04-13T05:45:00.627Z,982.7
2023-04-13T05:46:00.656Z,982.5
2023-04-13T05:47:00.607Z,982.7
2023-04-13T05:48:00.667Z,982.7
2023-04-13T05:49:00.833Z,982.5
2023-04-13T05:50:00.687Z,982.3
2023-04-13T05:51:00.616Z,982.3
2023-04-13T05:52:00.630Z,982.3
2023-04-13T05:53:00.628Z,982.3
2023-04-13T05:54:00.646Z,982.3
2023-04-13T05:55:00.614Z,982.3
2023-04-13T05:56:00.619Z,982.3
2023-04-13T05:57:00.635Z,982.3
2023-04-13T05:58:00.629Z,982.3
2023-04-13T05:59:00.975Z,982.3
2023-04-13T06:00:00.631Z,982.3
2023-04-13T06:01:00.618Z,982.3
2023-04-13T06:02:00.682Z,982.3
2023-04-13T06:03:00.822Z,982.3
2023-04-13T06:04:00.825Z,982.3
2023-04-13T06:05:00.851Z,982.3
2023-04-13T06:06:00.652Z,982.3
2023-04-13T06:07:00.660Z,982.3
2023-04-13T06:08:00.636Z,982.5
2023-04-13T06:09:00.909Z,982.3
2023-04-13T06:10:00.738Z,982.5
2023-04-13T06:11:00.627Z,982.3
2023-04-13T06:12:01.521Z,982.3
2023-04-13T06:13:00.655Z,982.3
2023-04-13T06:14:00.638Z,982.3
2023-04-13T06:15:00.634Z,982.3
2023-04-13T06:16:00.665Z,982.3
2023-04-13T06:17:00.738Z,982.3
2023-04-13T06:18:00.726Z,982.3
2023-04-13T06:19:00.920Z,982.1
2023-04-13T06:20:00.687Z,981.9
2023-04-13T06:21:00.661Z,981.9
2023-04-13T06:22:00.642Z,981.9
2023-04-13T06:23:00.652Z,981.9
2023-04-13T06:24:00.655Z,981.9
2023-04-13T06:25:00.638Z,981.9
2023-04-13T06:26:00.697Z,981.9
2023-04-13T06:27:00.646Z,981.7
2023-04-13T06:28:00.661Z,981.2
2023-04-13T06:29:01.019Z,981
2023-04-13T06:30:00.678Z,981.2
2023-04-13T06:31:00.726Z,981.4
2023-04-13T06:32:00.658Z,981.4
2023-04-13T06:33:00.704Z,981.4
2023-04-13T06:34:00.677Z,981
2023-04-13T06:35:00.680Z,981
2023-04-13T06:36:00.658Z,981.2
2023-04-13T06:37:00.652Z,981
2023-04-13T06:38:00.675Z,981
2023-04-13T06:39:01.210Z,981.2
2023-04-13T06:40:00.694Z,981.2
2023-04-13T06:41:00.687Z,981
2023-04-13T06:42:00.657Z,980.8
2023-04-13T06:43:00.684Z,980.6
2023-04-13T06:44:00.669Z,980.4
2023-04-13T06:45:00.669Z,980.1
2023-04-13T06:46:00.803Z,980.4
2023-04-13T06:47:00.662Z,980.6
2023-04-13T06:48:00.756Z,980.4
2023-04-13T06:49:00.823Z,980.4
2023-04-13T06:50:00.691Z,980.6
2023-04-13T06:51:00.688Z,980.4
2023-04-13T06:52:00.681Z,980.1
2023-04-13T06:53:01.521Z,980.6
2023-04-13T06:54:00.699Z,980.6
2023-04-13T06:55:00.692Z,980.8
2023-04-13T06:56:00.676Z,980.6
2023-04-13T06:57:00.726Z,980.6
2023-04-13T06:58:00.692Z,980.6
2023-04-13T06:59:02.330Z,980.8
2023-04-13T07:00:00.712Z,980.6
2023-04-13T07:01:00.733Z,980.4
2023-04-13T07:02:00.839Z,980.4
2023-04-13T07:03:01.036Z,980.1
2023-04-13T07:04:00.868Z,979.7
2023-04-13T07:05:00.742Z,979.7
2023-04-13T07:06:00.689Z,979.7
2023-04-13T07:07:00.749Z,979.7
2023-04-13T07:08:00.690Z,979.7
2023-04-13T07:09:01.025Z,979.7
2023-04-13T07:10:00.897Z,979.3
2023-04-13T07:11:00.756Z,979.5
2023-04-13T07:12:00.693Z,979.5
2023-04-13T07:13:00.715Z,979.3
2023-04-13T07:14:00.734Z,979.3
2023-04-13T07:15:00.712Z,979.3
2023-04-13T07:16:00.859Z,979
2023-04-13T07:17:00.757Z,978.8
2023-04-13T07:18:00.796Z,978.8
2023-04-13T07:19:01.182Z,978.8
2023-04-13T07:20:00.798Z,978.6
2023-04-13T07:21:00.711Z,978.8
2023-04-13T07:22:00.715Z,978.8
2023-04-13T07:23:00.708Z,978.8
2023-04-13T07:24:00.742Z,978.8
2023-04-13T07:25:00.738Z,978.8
2023-04-13T07:26:00.736Z,978.6
2023-04-13T07:27:00.723Z,978.6
2023-04-13T07:28:00.721Z,978.8
2023-04-13T07:29:00.915Z,978.8
2023-04-13T07:30:00.834Z,978.8
2023-04-13T07:31:00.762Z,978.6
2023-04-13T07:32:00.858Z,978.8
2023-04-13T07:33:00.836Z,978.8
2023-04-13T07:34:00.743Z,978.8
2023-04-13T07:35:00.741Z,978.8
2023-04-13T07:36:00.752Z,978.6
2023-04-13T07:37:00.724Z,978.4
2023-04-13T07:38:00.718Z,978.8
2023-04-13T07:39:01.099Z,978.8
2023-04-13T07:40:00.814Z,978.6
2023-04-13T07:41:00.715Z,978.6
2023-04-13T07:42:00.750Z,978.6
2023-04-13T07:43:00.777Z,978.4
2023-04-13T07:44:00.736Z,978
2023-04-13T07:45:00.740Z,978
2023-04-13T07:46:00.741Z,978.2
2023-04-13T07:47:00.842Z,978.4
2023-04-13T07:48:00.794Z,978.4
2023-04-13T07:49:01.146Z,978.2
2023-04-13T07:50:00.783Z,978
2023-04-13T07:51:00.742Z,978
2023-04-13T07:52:00.751Z,977.5
2023-04-13T07:53:00.758Z,977.5
2023-04-13T07:54:00.800Z,978
2023-04-13T07:55:00.759Z,978
2023-04-13T07:56:00.761Z,977.7
2023-04-13T07:57:00.768Z,977.5
2023-04-13T07:58:00.813Z,977.1
2023-04-13T07:59:01.204Z,976.7
2023-04-13T08:00:00.836Z,976.7
2023-04-13T08:01:00.766Z,976.4
2023-04-13T08:02:00.814Z,976.7
2023-04-13T08:03:00.984Z,976.7
2023-04-13T08:04:00.972Z,976.7
2023-04-13T08:05:01.009Z,976.4
2023-04-13T08:06:00.762Z,976.2
2023-04-13T08:07:00.780Z,976.2
2023-04-13T08:08:00.801Z,975.1
2023-04-13T08:09:00.914Z,975.4
2023-04-13T08:10:00.810Z,974.7
2023-04-13T08:11:00.772Z,974
2023-04-13T08:12:00.781Z,974.5
2023-04-13T08:13:00.767Z,973.8
2023-04-13T08:14:00.773Z,973.8
2023-04-13T08:15:00.765Z,974
2023-04-13T08:16:00.793Z,974.9
2023-04-13T08:17:03.221Z,974.5
2023-04-13T08:18:00.787Z,973.6
2023-04-13T08:19:01.065Z,974.3
2023-04-13T08:20:00.811Z,973.4
2023-04-13T08:21:00.792Z,974
2023-04-13T08:22:00.788Z,974.5
2023-04-13T08:23:00.815Z,974.5
2023-04-13T08:24:00.816Z,973.8
2023-04-13T08:25:00.795Z,973.8
2023-04-13T08:26:00.824Z,974
2023-04-13T08:27:00.805Z,973.6
2023-04-13T08:28:00.795Z,974
2023-04-13T08:29:01.102Z,973.6
2023-04-13T08:30:00.831Z,973.6
2023-04-13T08:31:00.784Z,972.7
2023-04-13T08:32:01.064Z,972.7
2023-04-13T08:33:00.824Z,972.7
2023-04-13T08:34:00.785Z,971.9
2023-04-13T08:35:00.850Z,972.1
2023-04-13T08:36:00.803Z,972.7
2023-04-13T08:37:00.827Z,972.3
2023-04-13T08:38:00.788Z,972.7
2023-04-13T08:39:01.199Z,971.9
2023-04-13T08:40:00.854Z,972.1
2023-04-13T08:41:00.816Z,971.9
2023-04-13T08:42:00.794Z,971.9
2023-04-13T08:43:00.797Z,972.1
2023-04-13T08:44:01.015Z,971.7
2023-04-13T08:45:00.822Z,971.9
2023-04-13T08:46:00.849Z,970.6
2023-04-13T08:47:00.816Z,970.4
2023-04-13T08:48:00.908Z,971
2023-04-13T08:49:00.798Z,971
2023-04-13T08:50:00.835Z,970.8
2023-04-13T08:51:00.814Z,970.6
2023-04-13T08:52:00.804Z,970.1
2023-04-13T08:53:00.808Z,969.3
2023-04-13T08:54:00.813Z,968
2023-04-13T08:55:00.814Z,968.6
2023-04-13T08:56:00.840Z,968.4
2023-04-13T08:57:00.833Z,968.4
2023-04-13T08:58:00.824Z,968.4
2023-04-13T08:59:01.169Z,968
2023-04-13T09:00:00.869Z,968.4
2023-04-13T09:01:00.853Z,968.8
2023-04-13T09:02:00.901Z,969.5
2023-04-13T09:03:05.444Z,969.3
2023-04-13T09:04:00.954Z,968.8
2023-04-13T09:05:00.943Z,968.8
2023-04-13T09:06:00.830Z,968.8
2023-04-13T09:07:00.817Z,968.8
2023-04-13T09:08:00.823Z,969.3
2023-04-13T09:09:01.128Z,968
2023-04-13T09:10:00.822Z,968.2
2023-04-13T09:11:00.827Z,968.4
2023-04-13T09:12:00.826Z,968.4
2023-04-13T09:13:00.808Z,968
2023-04-13T09:14:01.059Z,966.9
2023-04-13T09:15:00.851Z,968.2
2023-04-13T09:16:00.833Z,968
2023-04-13T09:17:00.868Z,968.2
2023-04-13T09:18:00.882Z,968.4
2023-04-13T09:19:01.043Z,968
2023-04-13T09:20:00.859Z,967.5
2023-04-13T09:21:00.854Z,968.4
2023-04-13T09:22:00.820Z,967.7
2023-04-13T09:23:02.272Z,967.3
2023-04-13T09:24:00.838Z,966.7
2023-04-13T09:25:00.834Z,967.1
2023-04-13T09:26:00.849Z,968
2023-04-13T09:27:00.826Z,968
2023-04-13T09:28:00.843Z,967.7
2023-04-13T09:29:01.191Z,968.4
2023-04-13T09:30:00.878Z,967.5
2023-04-13T09:31:00.914Z,966.7
2023-04-13T09:32:00.842Z,966.2
2023-04-13T09:33:00.870Z,965.8
2023-04-13T09:34:01.010Z,966.7
2023-04-13T09:35:00.871Z,966.2
2023-04-13T09:36:00.884Z,967.3
2023-04-13T09:37:02.018Z,966.7
2023-04-13T09:38:00.854Z,966.4
2023-04-13T09:39:01.063Z,967.1
2023-04-13T09:40:00.860Z,967.1
2023-04-13T09:41:00.885Z,966.9
2023-04-13T09:42:00.859Z,965.6
2023-04-13T09:43:00.898Z,966.7
2023-04-13T09:44:00.860Z,967.5
2023-04-13T09:45:00.935Z,967.3
2023-04-13T09:46:00.895Z,966.9
2023-04-13T09:47:00.876Z,967.5
2023-04-13T09:48:00.933Z,966.9
2023-04-13T09:49:01.273Z,966.9
2023-04-13T09:50:00.932Z,965.4
2023-04-13T09:51:00.887Z,966.4
2023-04-13T09:52:00.904Z,967.1
2023-04-13T09:53:00.877Z,967.3
2023-04-13T09:54:00.884Z,968.2
2023-04-13T09:55:00.980Z,967.7
2023-04-13T09:56:00.901Z,967.1
2023-04-13T09:57:00.874Z,967.5
2023-04-13T09:58:00.873Z,968
2023-04-13T09:59:01.058Z,968.4
2023-04-13T10:00:01.307Z,968.4
2023-04-13T10:01:00.883Z,968.4
2023-04-13T10:02:00.910Z,968.8
2023-04-13T10:03:00.909Z,968.4
2023-04-13T10:04:01.209Z,968.4
2023-04-13T10:05:00.937Z,968.8
2023-04-13T10:06:01.082Z,968.4
2023-04-13T10:07:00.890Z,968
2023-04-13T10:08:00.884Z,968.4
2023-04-13T10:09:00.870Z,968.4
2023-04-13T10:10:00.886Z,968.4
2023-04-13T10:11:00.901Z,968.6
2023-04-13T10:12:00.894Z,968.2
2023-04-13T10:13:00.878Z,968.4
2023-04-13T10:14:01.147Z,968.8
2023-04-13T10:15:00.895Z,967.1
2023-04-13T10:16:02.784Z,967.1
2023-04-13T10:17:00.885Z,968
2023-04-13T10:18:00.978Z,968
2023-04-13T10:19:01.106Z,967.5
2023-04-13T10:20:00.920Z,967.3
2023-04-13T10:21:00.910Z,967.5
2023-04-13T10:22:00.884Z,967.1
2023-04-13T10:23:00.886Z,967.1
2023-04-13T10:24:01.081Z,966.7
2023-04-13T10:25:00.870Z,967.5
2023-04-13T10:26:00.836Z,967.5
2023-04-13T10:27:00.816Z,967.5
2023-04-13T10:28:00.834Z,967.1
2023-04-13T10:29:00.859Z,967.5
2023-04-13T10:30:00.731Z,967.3
2023-04-13T10:31:00.673Z,968
2023-04-13T10:32:00.755Z,969.3
2023-04-13T10:33:00.661Z,968.6
2023-04-13T10:34:00.929Z,968.6
2023-04-13T10:35:00.594Z,968.2
2023-04-13T10:36:00.574Z,967.7
2023-04-13T10:37:00.498Z,967.5
2023-04-13T10:38:00.477Z,967.7
2023-04-13T10:39:00.805Z,968.2
2023-04-13T10:40:00.486Z,968.4
2023-04-13T10:41:00.494Z,967.5
2023-04-13T10:42:00.502Z,966.7
2023-04-13T10:43:00.472Z,967.1
2023-04-13T10:44:00.657Z,966.9
2023-04-13T10:45:00.502Z,966.7
2023-04-13T10:46:00.484Z,965.4
2023-04-13T10:47:00.504Z,964.9
2023-04-13T10:48:00.619Z,965.4
2023-04-13T10:49:00.750Z,964.5
2023-04-13T10:50:00.503Z,964.9
2023-04-13T10:51:00.507Z,963.6
2023-04-13T10:52:00.573Z,963.6
2023-04-13T10:53:00.774Z,964
2023-04-13T10:54:00.480Z,964.9
2023-04-13T10:55:00.515Z,964.9
2023-04-13T10:56:00.486Z,965.8
2023-04-13T10:57:00.493Z,964.9
2023-04-13T10:58:01.464Z,964
2023-04-13T10:59:00.814Z,964.5
2023-04-13T11:00:00.506Z,963.8
2023-04-13T11:01:00.536Z,963.2
2023-04-13T11:02:00.530Z,964.5
2023-04-13T11:03:00.692Z,964.5
2023-04-13T11:04:05.633Z,963.6
2023-04-13T11:05:00.621Z,963.2
2023-04-13T11:06:00.522Z,962.7
2023-04-13T11:07:00.498Z,962.7
2023-04-13T11:08:00.520Z,961.9
2023-04-13T11:09:00.502Z,961
2023-04-13T11:10:03.993Z,961.4
2023-04-13T11:11:00.618Z,961.9
2023-04-13T11:12:00.506Z,962.3
2023-04-13T11:13:00.512Z,962.7
2023-04-13T11:14:00.653Z,962.3
2023-04-13T11:15:00.619Z,962.3
2023-04-13T11:16:00.547Z,963.6
2023-04-13T11:17:00.525Z,962.3
2023-04-13T11:18:00.560Z,963.2
2023-04-13T11:19:00.840Z,963
2023-04-13T11:20:00.567Z,962.7
2023-04-13T11:21:00.595Z,962.7
2023-04-13T11:22:00.523Z,963
2023-04-13T11:23:00.521Z,961.9
2023-04-13T11:24:00.550Z,962.7
2023-04-13T11:25:00.532Z,963.6
2023-04-13T11:26:00.527Z,963.6
2023-04-13T11:27:00.537Z,963.6
2023-04-13T11:28:00.535Z,963.6
2023-04-13T11:29:00.790Z,962.7
2023-04-13T11:30:00.552Z,962.7
2023-04-13T11:31:00.557Z,963.8
2023-04-13T11:32:00.553Z,962.1
2023-04-13T11:33:00.642Z,963.2
2023-04-13T11:34:00.753Z,964
2023-04-13T11:35:00.556Z,961.9
2023-04-13T11:36:00.529Z,961.4
2023-04-13T11:37:00.536Z,961.7
2023-04-13T11:38:00.547Z,962.5
2023-04-13T11:39:00.815Z,962.3
2023-04-13T11:40:00.563Z,961
2023-04-13T11:41:14.365Z,960.6
2023-04-13T11:42:01.587Z,961.4
2023-04-13T11:43:00.538Z,959.9
2023-04-13T11:44:00.573Z,958.8
2023-04-13T11:45:00.557Z,960.6
2023-04-13T11:46:00.560Z,960.6
2023-04-13T11:47:00.538Z,960.1
2023-04-13T11:48:00.559Z,959.7
2023-04-13T11:49:00.720Z,960.1
2023-04-13T11:50:00.541Z,959
2023-04-13T11:51:00.562Z,960.4
2023-04-13T11:52:00.583Z,958
2023-04-13T11:53:00.566Z,957.5
2023-04-13T11:54:00.571Z,958
2023-04-13T11:55:10.718Z,959.3
2023-04-13T11:56:00.550Z,960.1
2023-04-13T11:57:00.552Z,959.9
2023-04-13T11:58:00.550Z,960.6
2023-04-13T11:59:00.770Z,960.8
2023-04-13T12:00:00.640Z,960.4
2023-04-13T12:01:03.210Z,959.9
2023-04-13T12:02:03.177Z,959.9
2023-04-13T12:03:03.049Z,959.7
2023-04-13T12:04:08.634Z,960.8
2023-04-13T12:05:00.753Z,959.3
2023-04-13T12:06:00.769Z,959.3
2023-04-13T12:07:01.167Z,959.7
2023-04-13T12:08:01.072Z,959
2023-04-13T12:09:09.110Z,961
2023-04-13T12:10:05.444Z,960.1
2023-04-13T12:11:25.170Z,961
2023-04-13T12:12:29.850Z,960.8
2023-04-13T12:14:09.978Z,958.8
2023-04-13T12:18:03.824Z,959.7
2023-04-13T12:19:02.403Z,958.2
2023-04-13T12:20:01.207Z,958.4
2023-04-13T12:21:01.259Z,957.5
2023-04-13T12:22:00.874Z,955.6
2023-04-13T12:23:12.389Z,955.4
2023-04-13T12:24:01.078Z,956.7
2023-04-13T12:25:02.238Z,956
2023-04-13T12:26:00.581Z,957.1
2023-04-13T12:27:17.927Z,958.4
2023-04-13T12:28:00.599Z,958
2023-04-13T12:29:00.875Z,958.2
2023-04-13T12:30:00.611Z,957.5
2023-04-13T12:31:00.642Z,957.5
2023-04-13T12:32:00.716Z,957.3
2023-04-13T12:33:00.656Z,958
2023-04-13T12:34:00.842Z,957.5
2023-04-13T12:35:00.631Z,957.5
2023-04-13T12:36:00.647Z,958.6
2023-04-13T12:37:00.598Z,957.1
2023-04-13T12:38:00.596Z,955.8
2023-04-13T12:39:00.842Z,955.4
2023-04-13T12:40:00.602Z,955.4
2023-04-13T12:41:00.618Z,955.4
2023-04-13T12:42:00.600Z,956.9
2023-04-13T12:43:00.601Z,954
2023-04-13T12:44:00.616Z,954
2023-04-13T12:45:00.647Z,954.5
2023-04-13T12:46:00.620Z,954.7
2023-04-13T12:47:00.701Z,953.8
2023-04-13T12:48:00.642Z,954.5
2023-04-13T12:49:00.837Z,955.1
2023-04-13T12:50:00.612Z,956.7
2023-04-13T12:51:00.641Z,956.2
2023-04-13T12:52:00.624Z,956.2
2023-04-13T12:53:00.627Z,955.6
2023-04-13T12:54:00.626Z,956.2
2023-04-13T12:55:00.659Z,956.9
2023-04-13T12:56:00.705Z,956.2
2023-04-13T12:57:00.630Z,954.9
2023-04-13T12:58:00.615Z,955.6
2023-04-13T12:59:01.448Z,956.2
2023-04-13T13:00:00.652Z,956.2
2023-04-13T13:01:00.677Z,955.8
2023-04-13T13:02:00.705Z,954.3
2023-04-13T13:03:12.955Z,954.5
2023-04-13T13:04:00.768Z,955.4
2023-04-13T13:05:00.662Z,954
2023-04-13T13:06:00.648Z,954.9